createdAt,value
2023-04-22T00:01:06.805Z,51.15
2023-04-22T00:03:34.216Z,50.90
2023-04-22T00:06:01.594Z,51.03
2023-04-22T00:08:28.621Z,51.24
2023-04-22T00:10:56.611Z,51.26
2023-04-22T00:13:23.526Z,51.01
2023-04-22T00:15:51.226Z,50.87
2023-04-22T00:18:18.303Z,51.35
2023-04-22T00:20:45.709Z,51.35
2023-04-22T00:23:13.501Z,51.68
2023-04-22T00:25:40.904Z,52.43
2023-04-22T00:28:07.938Z,52.99
2023-04-22T00:30:36.127Z,53.48
2023-04-22T00:33:03.090Z,54.09
2023-04-22T00:35:30.141Z,54.51
2023-04-22T00:37:57.048Z,54.19
2023-04-22T00:40:23.999Z,53.89
2023-04-22T00:42:51.331Z,53.65
2023-04-22T00:45:19.962Z,53.96
2023-04-22T00:47:48.435Z,53.54
2023-04-22T00:50:16.222Z,53.25
2023-04-22T00:52:43.171Z,53.14
2023-04-22T00:55:11.287Z,53.23
2023-04-22T00:57:39.478Z,52.86
2023-04-22T01:00:09.815Z,52.95
2023-04-22T01:02:38.795Z,52.87
2023-04-22T01:05:08.486Z,52.96
2023-04-22T01:07:36.492Z,53.29
2023-04-22T01:10:04.832Z,53.39
2023-04-22T01:12:31.767Z,53.38
2023-04-22T01:14:58.691Z,53.23
2023-04-22T01:17:25.813Z,53.50
2023-04-22T01:19:53.347Z,53.54
2023-04-22T01:22:21.426Z,53.54
2023-04-22T01:24:49.170Z,53.49
2023-04-22T01:27:16.188Z,53.58
2023-04-22T01:29:43.529Z,53.74
2023-04-22T01:32:11.017Z,53.57
2023-04-22T01:34:38.099Z,53.61
2023-04-22T01:37:06.559Z,53.58
2023-04-22T01:39:33.713Z,53.70
2023-04-22T01:42:02.111Z,53.66
2023-04-22T01:44:29.165Z,53.69
2023-04-22T01:46:56.310Z,53.75
2023-04-22T01:49:23.216Z,53.86
2023-04-22T01:51:51.054Z,53.54
2023-04-22T01:54:19.238Z,53.96
2023-04-22T01:56:54.604Z,54.25
2023-04-22T01:59:22.180Z,54.24
2023-04-22T02:01:50.432Z,54.37
2023-04-22T02:04:18.421Z,54.28
2023-04-22T02:06:45.469Z,54.24
2023-04-22T02:09:12.403Z,54.19
2023-04-22T02:11:39.275Z,54.13
2023-04-22T02:14:06.667Z,54.21
2023-04-22T02:16:33.697Z,54.15
2023-04-22T02:19:00.691Z,54.10
2023-04-22T02:21:32.579Z,54.43
2023-04-22T02:23:59.502Z,54.35
2023-04-22T02:26:28.728Z,54.59
2023-04-22T02:28:55.635Z,54.41
2023-04-22T02:31:22.572Z,54.21
2023-04-22T02:33:49.740Z,54.27
2023-04-22T02:36:17.085Z,54.31
2023-04-22T02:38:44.015Z,54.30
2023-04-22T02:41:11.348Z,54.31
2023-04-22T02:43:38.273Z,54.51
2023-04-22T02:46:05.244Z,54.31
2023-04-22T02:48:32.210Z,54.18
2023-04-22T02:50:59.097Z,54.19
2023-04-22T02:53:26.024Z,54.33
2023-04-22T02:55:55.616Z,54.18
2023-04-22T02:58:22.576Z,54.34
2023-04-22T03:00:49.546Z,54.55
2023-04-22T03:03:16.700Z,54.55
2023-04-22T03:05:43.745Z,54.57
2023-04-22T03:08:10.960Z,54.47
2023-04-22T03:10:37.880Z,54.62
2023-04-22T03:13:04.818Z,54.38
2023-04-22T03:15:31.898Z,54.49
2023-04-22T03:17:58.814Z,54.50
2023-04-22T03:20:26.146Z,54.41
2023-04-22T03:22:54.079Z,54.67
2023-04-22T03:25:21.750Z,54.58
2023-04-22T03:27:54.890Z,54.76
2023-04-22T03:30:21.918Z,54.64
2023-04-22T03:32:49.037Z,54.61
2023-04-22T03:35:22.144Z,54.82
2023-04-22T03:37:51.178Z,54.80
2023-04-22T03:40:23.490Z,54.72
2023-04-22T03:42:50.450Z,54.71
2023-04-22T03:45:19.843Z,54.50
2023-04-22T03:47:53.809Z,54.60
2023-04-22T03:50:26.527Z,54.56
2023-04-22T03:52:54.523Z,54.75
2023-04-22T03:55:21.740Z,54.57
2023-04-22T03:57:51.773Z,54.88
2023-04-22T04:00:19.483Z,54.76
2023-04-22T04:02:52.664Z,55.07
2023-04-22T04:05:24.597Z,54.86
2023-04-22T04:07:51.593Z,54.96
2023-04-22T04:10:18.515Z,55.39
2023-04-22T04:12:45.975Z,55.36
2023-04-22T04:15:12.989Z,55.50
2023-04-22T04:17:40.622Z,55.50
2023-04-22T04:20:08.818Z,55.64
2023-04-22T04:22:36.588Z,55.75
2023-04-22T04:25:07.049Z,55.59
2023-04-22T04:27:41.527Z,55.86
2023-04-22T04:30:11.300Z,55.62
2023-04-22T04:32:43.033Z,55.57
2023-04-22T04:35:15.278Z,55.66
2023-04-22T04:37:47.304Z,55.29
2023-04-22T04:40:15.134Z,55.24
2023-04-22T04:42:55.697Z,55.17
2023-04-22T04:45:26.539Z,55.13
2023-04-22T04:47:54.907Z,55.03
2023-04-22T04:50:30.358Z,55.03
2023-04-22T04:53:01.521Z,54.97
2023-04-22T04:55:34.860Z,54.67
2023-04-22T04:58:06.754Z,54.87
2023-04-22T05:00:33.662Z,54.87
2023-04-22T05:03:01.172Z,54.55
2023-04-22T05:05:29.686Z,54.54
2023-04-22T05:07:57.417Z,54.56
2023-04-22T05:10:27.187Z,54.61
2023-04-22T05:12:54.567Z,54.82
2023-04-22T05:15:24.280Z,55.03
2023-04-22T05:17:51.691Z,54.96
2023-04-22T05:20:18.678Z,55.25
2023-04-22T05:22:45.958Z,55.47
2023-04-22T05:25:14.058Z,55.38
2023-04-22T05:27:49.019Z,55.69
2023-04-22T05:30:18.467Z,55.57
2023-04-22T05:32:45.571Z,55.85
2023-04-22T05:35:12.605Z,56.03
2023-04-22T05:37:41.101Z,56.24
2023-04-22T05:40:08.793Z,56.22
2023-04-22T05:42:35.846Z,56.23
2023-04-22T05:45:03.045Z,56.03
2023-04-22T05:47:30.730Z,56.20
2023-04-22T05:49:58.138Z,56.41
2023-04-22T05:52:34.239Z,56.45
2023-04-22T05:55:09.540Z,56.65
2023-04-22T05:57:36.477Z,56.62
2023-04-22T06:00:09.718Z,56.55
2023-04-22T06:02:49.683Z,56.39
2023-04-22T06:05:17.954Z,56.28
2023-04-22T06:07:44.944Z,56.32
2023-04-22T06:10:11.931Z,55.98
2023-04-22T06:12:38.867Z,56.25
2023-04-22T06:15:06.622Z,56.14
2023-04-22T06:17:33.628Z,55.78
2023-04-22T06:20:00.799Z,56.01
2023-04-22T06:22:27.818Z,56.24
2023-04-22T06:24:54.742Z,55.86
2023-04-22T06:27:21.680Z,55.74
2023-04-22T06:29:48.600Z,55.58
2023-04-22T06:32:15.947Z,55.39
2023-04-22T06:34:42.905Z,55.44
2023-04-22T06:37:09.884Z,55.34
2023-04-22T06:39:36.920Z,54.92
2023-04-22T06:42:22.262Z,54.00
2023-04-22T06:45:12.623Z,54.09
2023-04-22T06:47:48.424Z,53.64
2023-04-22T06:50:20.141Z,53.45
2023-04-22T06:53:06.825Z,52.86
2023-04-22T06:55:35.716Z,52.89
2023-04-22T06:58:02.751Z,52.38
2023-04-22T07:00:29.727Z,51.83
2023-04-22T07:02:58.634Z,51.37
2023-04-22T07:05:25.689Z,51.48
2023-04-22T07:07:52.924Z,50.78
2023-04-22T07:10:22.642Z,50.55
2023-04-22T07:13:18.287Z,49.13
2023-04-22T07:15:46.330Z,48.46
2023-04-22T07:18:13.242Z,48.24
2023-04-22T07:20:40.268Z,48.56
2023-04-22T07:23:07.143Z,48.30
2023-04-22T07:25:34.130Z,48.36
2023-04-22T07:28:01.038Z,48.34
2023-04-22T07:30:28.066Z,46.41
2023-04-22T07:32:55.462Z,45.25
2023-04-22T07:35:22.390Z,43.35
2023-04-22T07:37:49.264Z,43.73
2023-04-22T07:40:16.382Z,42.59
2023-04-22T07:42:43.271Z,42.27
2023-04-22T07:45:10.365Z,42.50
2023-04-22T07:47:37.278Z,42.21
2023-04-22T07:50:04.806Z,42.60
2023-04-22T07:52:31.802Z,42.16
2023-04-22T07:54:58.711Z,42.25
2023-04-22T07:57:25.874Z,41.28
2023-04-22T07:59:53.119Z,41.92
2023-04-22T08:02:20.176Z,41.51
2023-04-22T08:04:47.194Z,41.35
2023-04-22T08:07:30.947Z,41.39
2023-04-22T08:10:00.274Z,41.06
2023-04-22T08:12:27.213Z,40.38
2023-04-22T08:14:54.339Z,40.55
2023-04-22T08:17:22.252Z,40.16
2023-04-22T08:19:49.947Z,41.13
2023-04-22T08:22:18.531Z,40.43
2023-04-22T08:24:45.422Z,40.19
2023-04-22T08:27:12.351Z,40.25
2023-04-22T08:29:39.524Z,39.34
2023-04-22T08:32:06.661Z,38.74
2023-04-22T08:34:33.699Z,38.77
2023-04-22T08:37:00.574Z,39.02
2023-04-22T08:39:27.487Z,39.32
2023-04-22T08:41:56.237Z,38.82
2023-04-22T08:44:23.457Z,38.83
2023-04-22T08:46:51.614Z,38.50
2023-04-22T08:49:19.346Z,38.60
2023-04-22T08:51:46.406Z,37.77
2023-04-22T08:54:13.333Z,36.69
2023-04-22T08:56:44.274Z,37.22
2023-04-22T08:59:12.679Z,37.07
2023-04-22T09:01:41.506Z,36.76
2023-04-22T09:04:11.450Z,37.27
2023-04-22T09:06:39.349Z,37.00
2023-04-22T09:09:08.751Z,36.28
2023-04-22T09:11:36.331Z,36.07
2023-04-22T09:14:06.749Z,36.19
2023-04-22T09:16:34.511Z,36.14
2023-04-22T09:19:01.625Z,36.17
2023-04-22T09:21:29.052Z,35.88
2023-04-22T09:23:56.891Z,35.40
2023-04-22T09:26:26.288Z,35.37
2023-04-22T09:28:58.844Z,35.39
2023-04-22T09:31:28.364Z,35.36
2023-04-22T09:33:59.427Z,35.65
2023-04-22T09:36:30.599Z,35.60
2023-04-22T09:38:59.495Z,35.40
2023-04-22T09:41:38.745Z,35.05
2023-04-22T09:44:11.500Z,34.50
2023-04-22T09:46:38.382Z,35.01
2023-04-22T09:49:05.715Z,35.28
2023-04-22T09:51:32.591Z,35.44
2023-04-22T09:54:06.427Z,35.37
2023-04-22T09:56:52.675Z,35.63
2023-04-22T09:59:28.684Z,35.27
2023-04-22T10:02:00.284Z,34.66
2023-04-22T10:04:28.283Z,34.10
2023-04-22T10:06:55.598Z,34.11
2023-04-22T10:09:25.389Z,34.46
2023-04-22T10:11:55.145Z,34.24
2023-04-22T10:14:23.179Z,33.99
2023-04-22T10:16:54.500Z,34.72
2023-04-22T10:19:23.900Z,34.68
2023-04-22T10:22:00.720Z,33.98
2023-04-22T10:24:28.998Z,33.71
2023-04-22T10:27:06.402Z,32.76
2023-04-22T10:29:39.509Z,33.23
2023-04-22T10:32:25.947Z,33.32
2023-04-22T10:35:10.362Z,33.89
2023-04-22T10:37:39.943Z,31.80
2023-04-22T10:40:17.647Z,33.01
2023-04-22T10:42:52.276Z,32.87
2023-04-22T10:45:20.109Z,32.06
2023-04-22T10:47:47.075Z,32.18
2023-04-22T10:50:20.638Z,32.89
2023-04-22T10:52:57.291Z,32.39
2023-04-22T10:55:26.037Z,32.20
2023-04-22T10:57:54.108Z,32.38
2023-04-22T11:00:52.412Z,31.67
2023-04-22T11:03:28.596Z,31.74
2023-04-22T11:06:22.501Z,32.27
2023-04-22T11:08:51.147Z,32.14
2023-04-22T11:11:19.033Z,32.72
2023-04-22T11:13:50.510Z,32.13
2023-04-22T11:16:18.799Z,32.11
2023-04-22T11:18:47.886Z,31.74
2023-04-22T11:21:15.022Z,31.88
2023-04-22T11:23:53.349Z,31.80
2023-04-22T11:26:35.080Z,31.82
2023-04-22T11:29:01.968Z,31.72
2023-04-22T11:31:28.914Z,31.64
2023-04-22T11:34:00.286Z,32.34
2023-04-22T11:36:27.701Z,31.81
2023-04-22T11:38:56.319Z,31.73
2023-04-22T11:41:23.741Z,31.21
2023-04-22T11:43:50.610Z,31.46
2023-04-22T11:46:28.088Z,31.70
2023-04-22T11:48:55.002Z,30.77
2023-04-22T11:51:21.906Z,30.73
2023-04-22T11:53:51.926Z,31.15
2023-04-22T11:56:18.810Z,30.71
2023-04-22T11:58:45.699Z,31.03
2023-04-22T12:01:13.982Z,31.30
2023-04-22T12:03:40.948Z,30.83
2023-04-22T12:06:08.037Z,30.11
2023-04-22T12:08:40.203Z,29.97
2023-04-22T12:11:10.489Z,30.17
2023-04-22T12:13:37.220Z,30.50
2023-04-22T12:16:06.618Z,30.28
2023-04-22T12:18:39.783Z,29.90
2023-04-22T12:21:15.013Z,30.49
2023-04-22T12:23:54.624Z,30.42
2023-04-22T12:26:26.892Z,29.51
2023-04-22T12:28:55.901Z,30.08
2023-04-22T12:31:22.994Z,30.12
2023-04-22T12:33:50.328Z,29.06
2023-04-22T12:36:20.824Z,28.63
2023-04-22T12:38:48.077Z,28.38
2023-04-22T12:41:16.077Z,28.61
2023-04-22T12:43:43.003Z,27.72
2023-04-22T12:46:10.430Z,28.45
2023-04-22T12:48:37.765Z,28.30
2023-04-22T12:51:06.572Z,28.96
2023-04-22T12:53:33.561Z,28.51
2023-04-22T12:56:00.528Z,27.82
2023-04-22T12:58:27.447Z,28.50
2023-04-22T13:00:54.369Z,27.97
2023-04-22T13:03:21.344Z,27.93
2023-04-22T13:05:48.469Z,28.37
2023-04-22T13:08:15.374Z,27.77
2023-04-22T13:10:42.336Z,27.18
2023-04-22T13:13:18.494Z,28.21
2023-04-22T13:15:53.800Z,28.18
2023-04-22T13:18:22.809Z,28.22
2023-04-22T13:20:49.739Z,27.63
2023-04-22T13:23:17.174Z,27.63
2023-04-22T13:25:44.325Z,28.58
2023-04-22T13:28:11.768Z,27.74
2023-04-22T13:30:39.481Z,27.67
2023-04-22T13:33:06.417Z,27.42
2023-04-22T13:35:33.397Z,27.81
2023-04-22T13:38:01.345Z,27.92
2023-04-22T13:40:28.576Z,28.48
2023-04-22T13:42:55.881Z,27.84
2023-04-22T13:45:22.832Z,28.10
2023-04-22T13:47:49.774Z,27.40
2023-04-22T13:50:16.762Z,27.39
2023-04-22T13:52:43.956Z,27.60
2023-04-22T13:55:11.027Z,27.31
2023-04-22T13:57:37.974Z,27.96
2023-04-22T14:00:05.542Z,28.17
2023-04-22T14:02:38.701Z,27.08
2023-04-22T14:05:06.264Z,26.86
2023-04-22T14:07:33.207Z,27.79
2023-04-22T14:10:00.138Z,27.67
2023-04-22T14:12:27.177Z,28.04
2023-04-22T14:14:54.070Z,27.48
2023-04-22T14:17:22.538Z,27.57
2023-04-22T14:19:49.495Z,27.74
2023-04-22T14:22:16.377Z,28.14
2023-04-22T14:24:43.276Z,27.88
2023-04-22T14:27:11.892Z,27.79
2023-04-22T14:29:39.632Z,27.88
2023-04-22T14:32:06.818Z,27.31
2023-04-22T14:34:33.765Z,27.67
2023-04-22T14:37:00.677Z,28.36
2023-04-22T14:39:27.573Z,27.86
2023-04-22T14:41:54.472Z,28.43
2023-04-22T14:44:21.593Z,27.61
2023-04-22T14:46:48.469Z,27.77
2023-04-22T14:49:15.561Z,28.07
2023-04-22T14:51:42.446Z,28.18
2023-04-22T14:54:09.331Z,27.67
2023-04-22T14:56:36.487Z,28.02
2023-04-22T14:59:03.371Z,28.27
2023-04-22T15:01:31.393Z,28.07
2023-04-22T15:03:58.729Z,27.99
2023-04-22T15:06:26.912Z,28.57
2023-04-22T15:08:54.014Z,28.33
2023-04-22T15:11:20.921Z,28.67
2023-04-22T15:13:47.818Z,28.59
2023-04-22T15:16:14.851Z,28.82
2023-04-22T15:18:41.879Z,28.72
2023-04-22T15:21:10.513Z,28.33
2023-04-22T15:23:37.452Z,28.82
2023-04-22T15:26:04.391Z,28.60
2023-04-22T15:28:31.352Z,29.01
2023-04-22T15:30:58.251Z,28.39
2023-04-22T15:33:25.181Z,28.75
2023-04-22T15:35:52.073Z,28.93
2023-04-22T15:38:19.257Z,29.14
2023-04-22T15:40:46.168Z,29.37
2023-04-22T15:43:13.082Z,29.83
2023-04-22T15:45:40.016Z,29.66
2023-04-22T15:48:07.035Z,29.06
2023-04-22T15:50:34.075Z,29.02
2023-04-22T15:53:00.960Z,29.63
2023-04-22T15:55:27.859Z,29.04
2023-04-22T15:57:54.758Z,29.26
2023-04-22T16:00:21.725Z,28.44
2023-04-22T16:02:55.309Z,28.67
2023-04-22T16:05:24.688Z,28.51
2023-04-22T16:07:53.073Z,28.77
2023-04-22T16:10:20.822Z,28.89
2023-04-22T16:12:47.918Z,28.80
2023-04-22T16:15:14.856Z,29.10
2023-04-22T16:17:43.651Z,29.55
2023-04-22T16:20:10.958Z,29.61
2023-04-22T16:22:37.847Z,29.80
2023-04-22T16:25:05.704Z,29.33
2023-04-22T16:27:32.629Z,29.04
2023-04-22T16:29:59.717Z,29.67
2023-04-22T16:32:26.766Z,29.38
2023-04-22T16:34:53.697Z,30.01
2023-04-22T16:37:20.580Z,29.97
2023-04-22T16:39:47.499Z,30.52
2023-04-22T16:42:14.439Z,30.21
2023-04-22T16:44:41.350Z,29.87
2023-04-22T16:47:08.310Z,30.12
2023-04-22T16:49:35.588Z,29.59
2023-04-22T16:52:02.535Z,29.98
2023-04-22T16:54:29.582Z,29.29
2023-04-22T16:56:57.498Z,29.91
2023-04-22T16:59:24.476Z,29.19
2023-04-22T17:01:51.811Z,29.84
2023-04-22T17:04:18.965Z,29.63
2023-04-22T17:06:46.101Z,29.21
2023-04-22T17:09:12.991Z,29.53
2023-04-22T17:11:39.886Z,29.37
2023-04-22T17:14:06.777Z,29.12
2023-04-22T17:16:33.735Z,29.20
2023-04-22T17:19:00.869Z,29.43
2023-04-22T17:21:28.746Z,29.42
2023-04-22T17:23:55.875Z,29.91
2023-04-22T17:26:22.756Z,30.13
2023-04-22T17:28:49.646Z,29.96
2023-04-22T17:31:16.534Z,29.78
2023-04-22T17:33:43.705Z,29.84
2023-04-22T17:36:10.620Z,30.42
2023-04-22T17:38:37.528Z,30.55
2023-04-22T17:41:04.676Z,30.23
2023-04-22T17:43:31.554Z,30.88
2023-04-22T17:45:58.492Z,30.50
2023-04-22T17:48:25.532Z,31.23
2023-04-22T17:50:52.670Z,30.68
2023-04-22T17:53:19.568Z,31.06
2023-04-22T17:55:46.461Z,31.14
2023-04-22T17:58:13.335Z,31.50
2023-04-22T18:00:40.541Z,31.54
2023-04-22T18:03:07.634Z,31.50
2023-04-22T18:05:34.708Z,31.99
2023-04-22T18:08:02.824Z,31.96
2023-04-22T18:10:30.634Z,32.15
2023-04-22T18:12:57.593Z,32.41
2023-04-22T18:15:24.533Z,32.17
2023-04-22T18:17:51.682Z,32.32
2023-04-22T18:20:19.747Z,32.67
2023-04-22T18:22:49.267Z,32.72
2023-04-22T18:25:16.336Z,32.64
2023-04-22T18:27:43.616Z,32.65
2023-04-22T18:30:10.968Z,32.91
2023-04-22T18:32:38.059Z,33.15
2023-04-22T18:35:05.703Z,33.19
2023-04-22T18:37:34.562Z,33.27
2023-04-22T18:40:02.258Z,33.53
2023-04-22T18:42:29.218Z,33.57
2023-04-22T18:44:56.093Z,33.72
2023-04-22T18:47:23.086Z,33.91
2023-04-22T18:49:50.062Z,33.99
2023-04-22T18:52:17.263Z,33.96
2023-04-22T18:54:44.389Z,33.82
2023-04-22T18:57:11.264Z,34.45
2023-04-22T18:59:38.305Z,34.35
2023-04-22T19:02:06.331Z,34.29
2023-04-22T19:04:33.383Z,34.57
2023-04-22T19:07:00.889Z,34.50
2023-04-22T19:09:27.848Z,34.75
2023-04-22T19:11:55.319Z,34.91
2023-04-22T19:14:22.274Z,34.63
2023-04-22T19:16:49.146Z,34.87
2023-04-22T19:19:16.171Z,35.31
2023-04-22T19:21:43.198Z,35.26
2023-04-22T19:24:10.215Z,35.39
2023-04-22T19:26:37.132Z,35.40
2023-04-22T19:29:04.221Z,35.57
2023-04-22T19:31:31.465Z,35.60
2023-04-22T19:33:59.243Z,35.49
2023-04-22T19:36:26.920Z,35.96
2023-04-22T19:38:53.828Z,36.05
2023-04-22T19:41:20.713Z,36.05
2023-04-22T19:43:47.597Z,35.88
2023-04-22T19:46:14.468Z,36.09
2023-04-22T19:48:41.579Z,36.32
2023-04-22T19:51:10.032Z,36.29
2023-04-22T19:53:39.046Z,36.45
2023-04-22T19:56:06.209Z,36.46
2023-04-22T19:58:33.279Z,36.63
2023-04-22T20:01:00.362Z,36.42
2023-04-22T20:03:27.858Z,36.53
2023-04-22T20:05:55.137Z,36.41
2023-04-22T20:08:27.477Z,36.48
2023-04-22T20:10:55.249Z,36.55
2023-04-22T20:13:22.805Z,36.62
2023-04-22T20:15:50.185Z,36.43
2023-04-22T20:18:17.676Z,36.42
2023-04-22T20:20:47.924Z,37.10
2023-04-22T20:23:16.794Z,37.02
2023-04-22T20:25:44.720Z,37.26
2023-04-22T20:28:11.942Z,36.99
2023-04-22T20:30:39.284Z,37.11
2023-04-22T20:33:06.389Z,36.67
2023-04-22T20:35:35.801Z,37.23
2023-04-22T20:38:03.709Z,37.38
2023-04-22T20:40:31.029Z,36.95
2023-04-22T20:42:58.862Z,37.25
2023-04-22T20:45:27.171Z,37.15
2023-04-22T20:47:54.181Z,37.05
2023-04-22T20:50:21.166Z,37.58
2023-04-22T20:52:49.062Z,37.54
2023-04-22T20:55:17.016Z,37.33
2023-04-22T20:57:44.888Z,37.62
2023-04-22T21:00:12.330Z,37.16
2023-04-22T21:02:40.109Z,37.48
2023-04-22T21:05:07.814Z,37.38
2023-04-22T21:07:38.972Z,37.51
2023-04-22T21:10:07.386Z,37.64
2023-04-22T21:12:34.616Z,37.46
2023-04-22T21:15:01.919Z,37.41
2023-04-22T21:17:31.802Z,37.57
2023-04-22T21:19:59.215Z,37.34
2023-04-22T21:22:26.320Z,37.14
2023-04-22T21:24:54.091Z,37.78
2023-04-22T21:27:22.509Z,37.18
2023-04-22T21:29:50.190Z,37.03
2023-04-22T21:32:20.048Z,37.22
2023-04-22T21:34:47.023Z,37.56
2023-04-22T21:37:13.919Z,37.40
2023-04-22T21:39:41.218Z,37.22
2023-04-22T21:42:08.798Z,37.12
2023-04-22T21:44:37.112Z,37.83
2023-04-22T21:47:04.728Z,37.31
2023-04-22T21:49:31.752Z,37.42
2023-04-22T21:51:59.023Z,37.30
2023-04-22T21:54:25.937Z,37.74
2023-04-22T21:56:53.077Z,37.11
2023-04-22T21:59:19.995Z,37.18
2023-04-22T22:01:46.938Z,37.62
2023-04-22T22:04:15.921Z,37.64
2023-04-22T22:06:45.245Z,37.42
2023-04-22T22:09:14.250Z,37.36
2023-04-22T22:11:41.129Z,37.37
2023-04-22T22:14:08.043Z,37.57
2023-04-22T22:16:34.989Z,37.26
2023-04-22T22:19:04.472Z,37.76
2023-04-22T22:21:32.748Z,37.79
2023-04-22T22:23:59.766Z,37.73
2023-04-22T22:26:27.819Z,37.71
2023-04-22T22:28:55.061Z,37.47
2023-04-22T22:31:21.969Z,37.71
2023-04-22T22:33:48.982Z,37.99
2023-04-22T22:36:16.224Z,37.68
2023-04-22T22:38:43.210Z,37.56
2023-04-22T22:41:10.138Z,37.86
2023-04-22T22:43:37.064Z,37.41
2023-04-22T22:46:04.072Z,38.04
2023-04-22T22:48:31.146Z,38.07
2023-04-22T22:50:58.051Z,38.19
2023-04-22T22:53:24.949Z,38.14
2023-04-22T22:55:51.831Z,37.85
2023-04-22T22:58:18.720Z,37.77
2023-04-22T23:00:45.691Z,38.22
2023-04-22T23:03:12.897Z,38.03
2023-04-22T23:05:39.917Z,38.05
2023-04-22T23:08:07.122Z,37.97
2023-04-22T23:10:33.993Z,37.91
2023-04-22T23:13:01.122Z,38.32
2023-04-22T23:15:28.007Z,37.86
2023-04-22T23:17:54.949Z,37.98
2023-04-22T23:20:23.737Z,38.51
2023-04-22T23:22:51.352Z,38.41
2023-04-22T23:25:18.469Z,38.06
2023-04-22T23:27:45.622Z,38.41
2023-04-22T23:30:13.080Z,38.17
2023-04-22T23:32:41.060Z,38.48
2023-04-22T23:35:11.521Z,38.52
2023-04-22T23:37:43.782Z,38.48
2023-04-22T23:40:11.778Z,38.66
2023-04-22T23:42:38.674Z,38.79
2023-04-22T23:45:06.149Z,38.74
2023-04-22T23:47:33.204Z,38.78
2023-04-22T23:50:00.232Z,38.23
2023-04-22T23:52:27.143Z,38.45
2023-04-22T23:54:55.092Z,38.87
2023-04-22T23:57:22.232Z,38.54
2023-04-22T23:59:49.398Z,39.05
